createdAt,value
2023-04-04T00:02:36.203Z,75.70
2023-04-04T00:07:41.034Z,76.10
2023-04-04T00:12:45.195Z,76.50
2023-04-04T00:17:48.964Z,76.90
2023-04-04T00:22:53.925Z,77.30
2023-04-04T00:28:01.297Z,77.60
2023-04-04T00:33:06.726Z,78.00
2023-04-04T00:38:12.582Z,78.40
2023-04-04T00:43:17.773Z,78.80
2023-04-04T00:48:24.356Z,79.20
2023-04-04T00:53:28.990Z,79.70
2023-04-04T00:58:32.511Z,80.10
2023-04-04T01:03:36.471Z,80.70
2023-04-04T01:08:41.876Z,81.30
2023-04-04T01:13:45.844Z,81.70
2023-04-04T01:18:53.324Z,82.10
2023-04-04T01:24:02.278Z,82.50
2023-04-04T01:29:24.923Z,82.90
2023-04-04T01:34:33.064Z,83.20
2023-04-04T01:39:41.006Z,83.70
2023-04-04T01:44:46.791Z,84.10
2023-04-04T01:49:51.226Z,84.50
2023-04-04T01:54:57.227Z,84.80
2023-04-04T02:00:02.462Z,85.20
2023-04-04T02:05:06.999Z,85.60
2023-04-04T02:10:10.733Z,85.90
2023-04-04T02:15:16.918Z,86.20
2023-04-04T02:20:20.721Z,86.60
2023-04-04T02:25:26.260Z,86.90
2023-04-04T02:30:31.574Z,87.40
2023-04-04T02:35:35.982Z,87.90
2023-04-04T02:40:41.823Z,88.20
2023-04-04T02:45:49.476Z,88.70
2023-04-04T02:51:04.602Z,88.80
2023-04-04T02:56:09.964Z,89.30
2023-04-04T03:01:15.420Z,89.70
2023-04-04T03:06:19.199Z,90.00
2023-04-04T03:11:24.625Z,90.10
2023-04-04T03:16:31.387Z,90.40
2023-04-04T03:21:34.866Z,90.60
2023-04-04T03:26:38.140Z,90.90
2023-04-04T03:31:43.516Z,91.10
2023-04-04T03:36:47.908Z,91.30
2023-04-04T03:41:51.457Z,91.60
2023-04-04T03:46:56.571Z,91.80
2023-04-04T03:52:02.600Z,92.10
2023-04-04T03:57:07.613Z,92.30
2023-04-04T04:02:13.147Z,92.40
2023-04-04T04:07:16.923Z,92.60
2023-04-04T04:12:20.276Z,92.80
2023-04-04T04:17:25.439Z,93.00
2023-04-04T04:22:31.052Z,93.00
2023-04-04T04:27:34.850Z,93.10
2023-04-04T04:32:39.857Z,93.20
2023-04-04T04:37:44.531Z,93.30
2023-04-04T04:42:48.511Z,93.50
2023-04-04T04:47:57.831Z,93.60
2023-04-04T04:53:02.770Z,93.70
2023-04-04T04:58:06.989Z,93.80
2023-04-04T05:03:12.412Z,93.90
2023-04-04T05:08:23.416Z,94.00
2023-04-04T05:13:40.872Z,94.00
2023-04-04T05:18:46.019Z,94.30
2023-04-04T05:23:50.869Z,94.20
2023-04-04T05:28:57.062Z,94.20
2023-04-04T05:34:08.604Z,94.30
2023-04-04T05:39:13.725Z,94.30
2023-04-04T05:44:26.969Z,94.30
2023-04-04T05:49:31.981Z,94.10
2023-04-04T05:54:38.022Z,94.10
2023-04-04T05:59:47.967Z,94.10
2023-04-04T06:04:54.621Z,93.90
2023-04-04T06:10:09.080Z,93.80
2023-04-04T06:15:13.466Z,93.70
2023-04-04T06:20:23.052Z,93.50
2023-04-04T06:25:27.968Z,93.00
2023-04-04T06:30:37.613Z,93.00
2023-04-04T06:35:45.430Z,93.00
2023-04-04T06:40:49.766Z,92.80
2023-04-04T06:45:53.549Z,92.80
2023-04-04T06:50:58.840Z,92.70
2023-04-04T06:56:03.706Z,92.40
2023-04-04T07:01:07.244Z,92.30
2023-04-04T07:06:12.635Z,92.00
2023-04-04T07:11:16.210Z,91.30
2023-04-04T07:16:19.490Z,90.80
2023-04-04T07:21:25.172Z,90.50
2023-04-04T07:26:28.883Z,89.80
2023-04-04T07:31:32.552Z,89.40
2023-04-04T07:36:37.330Z,89.30
2023-04-04T07:41:41.503Z,88.80
2023-04-04T07:46:47.796Z,88.70
2023-04-04T07:51:55.830Z,88.60
2023-04-04T07:56:59.553Z,88.80
2023-04-04T08:02:03.175Z,89.10
2023-04-04T08:07:07.926Z,88.50
2023-04-04T08:12:12.037Z,88.00
2023-04-04T08:17:19.252Z,87.90
2023-04-04T08:22:24.344Z,87.20
2023-04-04T08:27:28.079Z,87.20
2023-04-04T08:32:32.668Z,86.30
2023-04-04T08:37:37.820Z,85.50
2023-04-04T08:42:43.798Z,85.70
2023-04-04T08:47:51.017Z,84.60
2023-04-04T08:52:57.206Z,83.20
2023-04-04T08:58:00.972Z,82.50
2023-04-04T09:03:11.191Z,82.30
2023-04-04T09:08:18.719Z,81.70
2023-04-04T09:13:22.892Z,80.60
2023-04-04T09:18:26.650Z,77.70
2023-04-04T09:23:31.753Z,76.90
2023-04-04T09:28:36.770Z,73.90
2023-04-04T09:33:40.676Z,72.30
2023-04-04T09:38:45.714Z,70.50
2023-04-04T09:43:49.417Z,70.20
2023-04-04T09:48:53.403Z,69.60
2023-04-04T09:54:00.315Z,68.60
2023-04-04T09:59:05.114Z,67.40
2023-04-04T10:04:10.496Z,67.00
2023-04-04T10:09:17.163Z,66.10
2023-04-04T10:14:34.706Z,66.40
2023-04-04T10:19:38.776Z,66.60
2023-04-04T10:24:43.828Z,65.70
2023-04-04T10:29:47.850Z,65.30
2023-04-04T10:34:58.076Z,63.50
2023-04-04T10:40:09.043Z,61.00
2023-04-04T10:45:21.217Z,61.00
2023-04-04T10:50:28.247Z,61.20
2023-04-04T10:55:35.760Z,60.90
2023-04-04T11:00:51.134Z,60.50
2023-04-04T11:06:00.549Z,60.60
2023-04-04T11:11:09.848Z,60.40
2023-04-04T11:16:21.282Z,59.50
2023-04-04T11:21:27.404Z,58.40
2023-04-04T11:26:39.618Z,58.20
2023-04-04T11:31:46.297Z,58.80
2023-04-04T11:36:54.146Z,58.90
2023-04-04T11:42:04.084Z,58.30
2023-04-04T11:47:12.019Z,57.20
2023-04-04T11:52:17.752Z,57.10
2023-04-04T11:57:22.671Z,56.70
2023-04-04T12:02:31.906Z,57.40
2023-04-04T12:07:36.595Z,58.10
2023-04-04T12:12:42.258Z,57.90
2023-04-04T12:17:48.617Z,57.90
2023-04-04T12:22:52.290Z,56.60
2023-04-04T12:27:57.536Z,56.20
2023-04-04T12:33:00.905Z,55.40
2023-04-04T12:38:07.384Z,55.90
2023-04-04T12:43:18.310Z,54.60
2023-04-04T12:48:28.019Z,54.30
2023-04-04T12:53:33.406Z,54.50
2023-04-04T12:58:38.265Z,54.70
2023-04-04T13:03:42.977Z,54.30
2023-04-04T13:08:53.608Z,53.00
2023-04-04T13:14:06.152Z,52.40
2023-04-04T13:19:09.804Z,52.50
2023-04-04T13:24:13.332Z,52.90
2023-04-04T13:29:18.403Z,52.00
2023-04-04T13:34:24.125Z,51.90
2023-04-04T13:39:27.922Z,51.20
2023-04-04T13:44:32.591Z,50.80
2023-04-04T13:49:36.233Z,51.40
2023-04-04T13:54:39.516Z,51.50
2023-04-04T13:59:44.179Z,51.60
2023-04-04T14:04:47.530Z,52.10
2023-04-04T14:09:50.972Z,52.30
2023-04-04T14:14:55.622Z,52.50
2023-04-04T14:19:58.912Z,52.60
2023-04-04T14:25:02.150Z,52.30
2023-04-04T14:30:08.194Z,52.40
2023-04-04T14:35:11.932Z,52.00
2023-04-04T14:40:15.264Z,52.10
2023-04-04T14:45:20.524Z,51.90
2023-04-04T14:50:23.735Z,51.40
2023-04-04T14:55:27.800Z,51.40
2023-04-04T15:00:33.948Z,51.00
2023-04-04T15:05:37.250Z,51.20
2023-04-04T15:10:40.634Z,51.50
2023-04-04T15:15:45.650Z,51.30
2023-04-04T15:20:48.834Z,50.10
2023-04-04T15:25:52.035Z,50.00
2023-04-04T15:30:57.055Z,50.40
2023-04-04T15:36:00.280Z,50.30
2023-04-04T15:41:05.849Z,50.20
2023-04-04T15:46:11.334Z,50.30
2023-04-04T15:51:14.682Z,50.30
2023-04-04T15:56:18.255Z,50.40
2023-04-04T16:01:23.033Z,50.50
2023-04-04T16:06:26.223Z,50.80
2023-04-04T16:11:29.584Z,51.10
2023-04-04T16:16:34.150Z,51.10
2023-04-04T16:21:37.930Z,51.20
2023-04-04T16:26:47.042Z,51.20
2023-04-04T16:31:51.626Z,51.50
2023-04-04T16:36:55.204Z,51.60
2023-04-04T16:42:00.497Z,51.90
2023-04-04T16:47:05.554Z,52.10
2023-04-04T16:52:10.620Z,52.40
2023-04-04T16:57:13.914Z,52.30
2023-04-04T17:02:18.679Z,52.30
2023-04-04T17:07:21.955Z,51.90
2023-04-04T17:12:25.197Z,52.00
2023-04-04T17:17:30.126Z,52.20
2023-04-04T17:22:33.491Z,52.50
2023-04-04T17:27:36.764Z,52.80
2023-04-04T17:32:41.755Z,53.00
2023-04-04T17:37:45.124Z,53.20
2023-04-04T17:42:48.482Z,53.50
2023-04-04T17:47:53.473Z,53.70
2023-04-04T17:52:57.135Z,54.20
2023-04-04T17:58:00.504Z,54.40
2023-04-04T18:03:05.499Z,54.80
2023-04-04T18:08:08.765Z,55.20
2023-04-04T18:13:11.994Z,55.50
2023-04-04T18:18:17.007Z,55.80
2023-04-04T18:23:20.421Z,56.30
2023-04-04T18:28:23.677Z,56.70
2023-04-04T18:33:28.326Z,57.20
2023-04-04T18:38:31.956Z,57.80
2023-04-04T18:43:35.567Z,58.20
2023-04-04T18:48:40.112Z,58.40
2023-04-04T18:53:43.354Z,58.70
2023-04-04T18:58:46.748Z,58.80
2023-04-04T19:03:53.785Z,59.10
2023-04-04T19:08:58.938Z,59.20
2023-04-04T19:14:02.153Z,59.50
2023-04-04T19:19:07.140Z,59.60
2023-04-04T19:24:11.660Z,59.60
2023-04-04T19:29:19.390Z,59.70
2023-04-04T19:34:23.982Z,59.70
2023-04-04T19:39:33.609Z,59.70
2023-04-04T19:44:39.400Z,59.90
2023-04-04T19:49:45.357Z,60.00
2023-04-04T19:54:48.961Z,60.10
2023-04-04T20:00:05.042Z,60.20
2023-04-04T20:05:49.776Z,60.30
2023-04-04T20:10:58.044Z,60.40
2023-04-04T20:16:07.174Z,60.40
2023-04-04T20:21:14.197Z,60.40
2023-04-04T20:26:54.383Z,60.50
2023-04-04T20:31:59.619Z,60.90
2023-04-04T20:37:07.219Z,61.10
2023-04-04T20:42:21.159Z,61.50
2023-04-04T20:47:44.039Z,61.90
2023-04-04T20:52:50.775Z,62.30
2023-04-04T20:57:55.970Z,62.60
2023-04-04T21:03:00.654Z,63.20
2023-04-04T21:08:30.293Z,63.60
2023-04-04T21:13:37.351Z,64.00
2023-04-04T21:18:42.056Z,64.50
2023-04-04T21:23:49.569Z,64.70
2023-04-04T21:28:53.269Z,65.10
2023-04-04T21:33:58.581Z,65.50
2023-04-04T21:39:07.070Z,65.80
2023-04-04T21:44:11.637Z,66.50
2023-04-04T21:49:15.354Z,66.90
2023-04-04T21:54:20.026Z,67.30
2023-04-04T21:59:23.368Z,67.70
2023-04-04T22:04:26.629Z,68.30
2023-04-04T22:09:31.264Z,68.70
2023-04-04T22:14:35.359Z,69.40
2023-04-04T22:19:43.812Z,70.10
2023-04-04T22:24:51.217Z,70.30
2023-04-04T22:29:54.449Z,70.90
2023-04-04T22:34:57.668Z,71.30
2023-04-04T22:40:02.263Z,71.80
2023-04-04T22:45:06.131Z,72.00
2023-04-04T22:50:10.426Z,72.20
2023-04-04T22:55:16.729Z,72.80
2023-04-04T23:00:20.212Z,73.50
2023-04-04T23:05:23.403Z,74.00
2023-04-04T23:10:28.224Z,74.40
2023-04-04T23:15:33.092Z,74.60
2023-04-04T23:20:37.273Z,74.70
2023-04-04T23:25:42.873Z,74.70
2023-04-04T23:30:46.149Z,74.80
2023-04-04T23:35:49.488Z,75.00
2023-04-04T23:40:55.082Z,74.80
2023-04-04T23:46:00.312Z,75.00
2023-04-04T23:51:04.307Z,74.90
2023-04-04T23:56:10.027Z,75.00
